Zürich Airport LSZH

Flugplatz Daten

Name: Zürich Airport

Ident: LSZH

Lat: 47,46469879

Long: 8,54916954

Platzhöhe: 1416 ft

IataCode: ZRH

City: Zurich

Metar

2021/10/25 19:50
LSZH 251950Z VRB02KT 8000 MIFG NSC 04/03 Q1022 BECMG 4500 BCFG

Taf

2021/10/25 18:33
TAF LSZH 251725Z 2518/2624 VRB02KT CAVOK TX13/2614Z TN03/2601Z
BECMG 2519/2521 4000 MIFG NSC PROB40
TEMPO 2521/2524 1500 BCFG
BECMG 2523/2602 6000 NSW BKN030 PROB30
TEMPO 2604/2616 SHRA
BECMG 2609/2612 9999
Gewünschte Webcam nicht vorhanden? Dann fügen Sie eine hinzu. Sie wird dann so schnell wie möglich freigeschaltet
Url: Title: